createdAt,value
2022-10-26T00:00:52.779Z,80.76
2022-10-26T00:03:19.887Z,80.52
2022-10-26T00:05:47.258Z,80.33
2022-10-26T00:08:14.994Z,80.71
2022-10-26T00:10:42.456Z,80.83
2022-10-26T00:13:11.793Z,80.40
2022-10-26T00:15:43.002Z,80.72
2022-10-26T00:18:10.402Z,80.84
2022-10-26T00:20:37.827Z,81.11
2022-10-26T00:23:05.079Z,80.92
2022-10-26T00:25:32.245Z,80.65
2022-10-26T00:27:59.484Z,80.47
2022-10-26T00:30:26.792Z,80.90
2022-10-26T00:32:54.079Z,80.91
2022-10-26T00:35:41.125Z,80.59
2022-10-26T00:38:11.098Z,81.01
2022-10-26T00:40:38.220Z,80.96
2022-10-26T00:43:10.588Z,80.67
2022-10-26T00:45:37.756Z,80.96
2022-10-26T00:48:07.664Z,80.97
2022-10-26T00:50:37.498Z,80.79
2022-10-26T00:53:06.627Z,80.71
2022-10-26T00:55:47.434Z,81.06
2022-10-26T00:58:14.713Z,80.69
2022-10-26T01:00:42.973Z,80.46
2022-10-26T01:03:10.977Z,80.78
2022-10-26T01:05:41.732Z,80.39
2022-10-26T01:08:09.597Z,80.60
2022-10-26T01:10:38.382Z,80.43
2022-10-26T01:13:05.802Z,80.65
2022-10-26T01:15:47.332Z,80.31
2022-10-26T01:18:38.144Z,80.47
2022-10-26T01:21:23.768Z,80.54
2022-10-26T01:24:08.385Z,80.86
2022-10-26T01:26:54.996Z,80.98
2022-10-26T01:29:49.422Z,81.23
2022-10-26T01:32:51.917Z,80.89
2022-10-26T01:35:25.348Z,81.16
2022-10-26T01:38:31.730Z,80.72
2022-10-26T01:41:20.187Z,80.41
2022-10-26T01:43:53.167Z,80.59
2022-10-26T01:46:22.130Z,80.45
2022-10-26T01:48:52.383Z,80.92
2022-10-26T01:51:20.391Z,81.24
2022-10-26T01:53:47.454Z,81.25
2022-10-26T01:56:20.318Z,81.32
2022-10-26T01:59:29.475Z,81.03
2022-10-26T02:02:24.452Z,81.55
2022-10-26T02:05:04.701Z,81.41
2022-10-26T02:07:37.031Z,81.04
2022-10-26T02:10:06.664Z,81.14
2022-10-26T02:12:39.065Z,81.26
2022-10-26T02:15:09.815Z,81.27
2022-10-26T02:17:49.400Z,81.48
2022-10-26T02:20:32.458Z,80.96
2022-10-26T02:23:01.998Z,80.95
2022-10-26T02:25:33.309Z,80.80
2022-10-26T02:28:04.444Z,81.16
2022-10-26T02:30:33.438Z,81.53
2022-10-26T02:33:01.614Z,81.45
2022-10-26T02:35:31.434Z,81.26
2022-10-26T02:38:00.891Z,80.70
2022-10-26T02:40:29.311Z,80.76
2022-10-26T02:42:59.937Z,80.98
2022-10-26T02:45:31.618Z,81.10
2022-10-26T02:47:58.803Z,81.51
2022-10-26T02:50:33.860Z,81.94
2022-10-26T02:53:26.971Z,81.53
2022-10-26T02:55:54.780Z,81.41
2022-10-26T02:58:28.575Z,81.79
2022-10-26T03:00:55.769Z,81.43
2022-10-26T03:03:23.197Z,81.52
2022-10-26T03:05:50.303Z,81.53
2022-10-26T03:08:17.428Z,81.34
2022-10-26T03:10:45.445Z,81.77
2022-10-26T03:13:13.693Z,81.03
2022-10-26T03:15:41.063Z,81.18
2022-10-26T03:18:08.246Z,81.72
2022-10-26T03:20:35.536Z,81.12
2022-10-26T03:23:02.597Z,81.78
2022-10-26T03:25:29.662Z,81.79
2022-10-26T03:28:01.001Z,81.75
2022-10-26T03:30:28.883Z,81.56
2022-10-26T03:32:56.463Z,81.38
2022-10-26T03:35:23.862Z,81.62
2022-10-26T03:37:51.546Z,81.98
2022-10-26T03:40:18.888Z,81.65
2022-10-26T03:42:46.057Z,81.94
2022-10-26T03:45:13.371Z,82.03
2022-10-26T03:47:43.822Z,81.36
2022-10-26T03:50:12.454Z,81.30
2022-10-26T03:52:40.233Z,81.25
2022-10-26T03:55:07.965Z,81.51
2022-10-26T03:57:35.072Z,81.29
2022-10-26T04:00:02.240Z,81.38
2022-10-26T04:02:29.265Z,82.09
2022-10-26T04:04:56.332Z,81.36
2022-10-26T04:07:23.419Z,81.67
2022-10-26T04:09:50.481Z,82.42
2022-10-26T04:12:17.599Z,81.93
2022-10-26T04:14:44.635Z,81.98
2022-10-26T04:17:11.700Z,81.92
2022-10-26T04:19:38.715Z,81.36
2022-10-26T04:22:05.804Z,81.52
2022-10-26T04:24:32.887Z,81.68
2022-10-26T04:26:59.953Z,81.59
2022-10-26T04:29:27.044Z,82.17
2022-10-26T04:31:54.105Z,81.83
2022-10-26T04:34:21.186Z,82.13
2022-10-26T04:36:48.277Z,82.01
2022-10-26T04:39:15.352Z,81.77
2022-10-26T04:41:42.439Z,81.76
2022-10-26T04:44:09.484Z,81.42
2022-10-26T04:46:36.569Z,81.33
2022-10-26T04:49:03.793Z,81.46
2022-10-26T04:51:30.892Z,81.78
2022-10-26T04:53:58.258Z,81.24
2022-10-26T04:56:25.346Z,80.94
2022-10-26T04:58:55.328Z,81.55
2022-10-26T05:01:22.532Z,81.69
2022-10-26T05:03:51.218Z,81.57
2022-10-26T05:06:18.470Z,81.36
2022-10-26T05:08:45.580Z,81.53
2022-10-26T05:11:12.703Z,81.65
2022-10-26T05:13:40.132Z,81.24
2022-10-26T05:16:07.591Z,81.44
2022-10-26T05:18:34.650Z,81.39
2022-10-26T05:21:01.774Z,81.33
2022-10-26T05:23:28.828Z,81.68
2022-10-26T05:25:56.878Z,81.93
2022-10-26T05:28:24.043Z,82.34
2022-10-26T05:30:51.116Z,81.99
2022-10-26T05:33:18.221Z,82.27
2022-10-26T05:35:45.393Z,82.76
2022-10-26T05:38:16.865Z,82.38
2022-10-26T05:40:48.746Z,81.88
2022-10-26T05:43:15.917Z,82.13
2022-10-26T05:45:43.009Z,82.07
2022-10-26T05:48:10.046Z,82.14
2022-10-26T05:50:37.309Z,82.00
2022-10-26T05:53:04.477Z,82.07
2022-10-26T05:55:31.915Z,81.88
2022-10-26T05:57:59.405Z,81.93
2022-10-26T06:00:29.901Z,82.28
2022-10-26T06:03:18.433Z,82.65
2022-10-26T06:05:53.322Z,82.57
2022-10-26T06:08:22.170Z,82.12
2022-10-26T06:10:49.907Z,81.86
2022-10-26T06:13:17.483Z,82.00
2022-10-26T06:16:11.078Z,82.70
2022-10-26T06:18:58.239Z,82.50
2022-10-26T06:21:49.669Z,81.99
2022-10-26T06:24:29.485Z,82.46
2022-10-26T06:26:59.267Z,82.55
2022-10-26T06:29:44.116Z,82.37
2022-10-26T06:32:11.254Z,82.54
2022-10-26T06:34:44.122Z,82.52
2022-10-26T06:37:11.326Z,82.48
2022-10-26T06:39:42.392Z,82.75
2022-10-26T06:42:10.899Z,82.86
2022-10-26T06:44:38.425Z,82.72
2022-10-26T06:47:26.997Z,82.32
2022-10-26T06:50:05.390Z,82.30
2022-10-26T06:52:44.740Z,82.45
2022-10-26T06:55:16.295Z,81.96
2022-10-26T06:57:44.358Z,82.34
2022-10-26T07:00:22.687Z,82.52
2022-10-26T07:02:50.279Z,82.80
2022-10-26T07:05:17.976Z,82.44
2022-10-26T07:07:46.662Z,82.50
2022-10-26T07:10:14.897Z,82.72
2022-10-26T07:12:41.973Z,82.60
2022-10-26T07:17:45.855Z,82.72
2022-10-26T07:20:13.560Z,82.86
2022-10-26T07:22:40.761Z,82.61
2022-10-26T07:25:08.348Z,82.36
2022-10-26T07:27:35.735Z,81.98
2022-10-26T07:30:02.888Z,81.57
2022-10-26T07:32:30.418Z,81.40
2022-10-26T07:34:57.475Z,81.64
2022-10-26T07:37:24.520Z,81.79
2022-10-26T07:39:51.586Z,81.54
2022-10-26T07:42:19.048Z,81.54
2022-10-26T07:44:46.337Z,81.50
2022-10-26T07:47:13.397Z,81.26
2022-10-26T07:49:40.584Z,81.41
2022-10-26T07:52:07.665Z,80.90
2022-10-26T07:54:34.780Z,80.93
2022-10-26T07:57:02.190Z,80.96
2022-10-26T07:59:29.453Z,81.09
2022-10-26T08:01:56.578Z,80.92
2022-10-26T08:04:23.659Z,80.83
2022-10-26T08:06:50.792Z,80.65
2022-10-26T08:09:17.896Z,79.81
2022-10-26T08:11:45.030Z,79.94
2022-10-26T08:14:12.149Z,79.16
2022-10-26T08:16:40.545Z,78.44
2022-10-26T08:19:07.746Z,78.17
2022-10-26T08:21:39.564Z,78.68
2022-10-26T08:24:07.826Z,78.04
2022-10-26T08:26:34.902Z,77.55
2022-10-26T08:29:02.069Z,77.84
2022-10-26T08:31:29.151Z,77.98
2022-10-26T08:33:56.204Z,78.11
2022-10-26T08:36:24.671Z,77.72
2022-10-26T08:38:52.679Z,77.52
2022-10-26T08:41:44.080Z,77.65
2022-10-26T08:44:16.928Z,77.09
2022-10-26T08:46:47.211Z,75.99
2022-10-26T08:49:21.101Z,76.03
2022-10-26T08:51:50.990Z,75.70
2022-10-26T08:54:38.114Z,75.34
2022-10-26T08:57:11.921Z,74.23
2022-10-26T08:59:49.490Z,72.87
2022-10-26T09:02:18.048Z,71.37
2022-10-26T09:04:45.365Z,70.27
2022-10-26T09:07:21.850Z,69.41
2022-10-26T09:10:05.492Z,68.94
2022-10-26T09:12:41.540Z,68.45
2022-10-26T09:15:08.489Z,68.52
2022-10-26T09:18:13.533Z,66.90
2022-10-26T09:20:51.108Z,66.72
2022-10-26T09:23:30.026Z,66.47
2022-10-26T09:26:02.055Z,66.45
2022-10-26T09:28:33.667Z,67.28
2022-10-26T09:31:02.306Z,66.32
2022-10-26T09:33:31.453Z,66.25
2022-10-26T09:36:04.155Z,63.90
2022-10-26T09:39:01.498Z,64.82
2022-10-26T09:41:39.337Z,63.59
2022-10-26T09:44:26.117Z,63.75
2022-10-26T09:46:58.669Z,62.61
2022-10-26T09:49:34.750Z,61.64
2022-10-26T09:52:01.859Z,61.04
2022-10-26T09:54:29.080Z,61.55
2022-10-26T09:56:59.329Z,61.78
2022-10-26T09:59:26.676Z,61.42
2022-10-26T10:01:53.994Z,61.06
2022-10-26T10:04:28.364Z,60.32
2022-10-26T10:07:01.212Z,60.05
2022-10-26T10:09:28.253Z,60.99
2022-10-26T10:12:03.735Z,60.29
2022-10-26T10:14:42.928Z,59.88
2022-10-26T10:17:20.650Z,60.76
2022-10-26T10:19:47.789Z,61.44
2022-10-26T10:22:14.741Z,60.73
2022-10-26T10:24:43.321Z,60.86
2022-10-26T10:27:13.297Z,60.64
2022-10-26T10:29:45.527Z,61.34
2022-10-26T10:32:34.061Z,60.91
2022-10-26T10:35:22.969Z,61.74
2022-10-26T10:37:50.925Z,61.41
2022-10-26T10:40:20.413Z,61.94
2022-10-26T10:42:48.557Z,61.73
2022-10-26T10:45:21.482Z,61.18
2022-10-26T10:48:21.613Z,61.53
2022-10-26T10:50:57.716Z,61.59
2022-10-26T10:53:30.557Z,62.07
2022-10-26T10:56:22.205Z,62.02
2022-10-26T10:59:03.991Z,62.15
2022-10-26T11:01:35.579Z,60.89
2022-10-26T11:04:21.045Z,60.67
2022-10-26T11:06:48.614Z,60.88
2022-10-26T11:09:19.953Z,61.16
2022-10-26T11:12:00.580Z,61.32
2022-10-26T11:14:33.255Z,60.98
2022-10-26T11:17:14.351Z,61.27
2022-10-26T11:19:45.438Z,60.89
2022-10-26T11:22:19.016Z,60.69
2022-10-26T11:24:50.397Z,60.28
2022-10-26T11:27:20.675Z,60.37
2022-10-26T11:29:54.471Z,60.27
2022-10-26T11:32:21.527Z,60.82
2022-10-26T11:35:14.015Z,61.20
2022-10-26T11:37:55.306Z,60.65
2022-10-26T11:40:49.924Z,61.28
2022-10-26T11:43:28.121Z,61.43
2022-10-26T11:46:18.940Z,61.49
2022-10-26T11:48:55.167Z,61.33
2022-10-26T11:52:00.943Z,60.52
2022-10-26T11:54:35.200Z,61.49
2022-10-26T11:57:03.965Z,61.75
2022-10-26T11:59:33.851Z,60.97
2022-10-26T12:02:40.594Z,60.29
2022-10-26T12:05:19.040Z,60.67
2022-10-26T12:07:53.542Z,59.97
2022-10-26T12:10:27.551Z,60.46
2022-10-26T12:13:13.221Z,60.30
2022-10-26T12:16:02.257Z,60.29
2022-10-26T12:18:56.622Z,60.00
2022-10-26T12:21:31.767Z,59.86
2022-10-26T12:24:23.023Z,59.82
2022-10-26T12:26:55.102Z,59.61
2022-10-26T12:29:26.951Z,59.73
2022-10-26T12:31:54.034Z,59.35
2022-10-26T12:34:30.815Z,58.77
2022-10-26T12:36:57.773Z,58.25
2022-10-26T12:39:40.867Z,58.72
2022-10-26T12:42:07.811Z,57.63
2022-10-26T12:44:37.905Z,57.80
2022-10-26T12:47:05.598Z,57.77
2022-10-26T12:50:07.014Z,57.83
2022-10-26T12:52:40.501Z,58.14
2022-10-26T12:55:07.487Z,57.85
2022-10-26T12:57:46.849Z,57.44
2022-10-26T13:00:17.432Z,58.02
2022-10-26T13:03:09.796Z,57.75
2022-10-26T13:06:07.165Z,57.67
2022-10-26T13:08:49.272Z,57.99
2022-10-26T13:11:21.391Z,57.79
2022-10-26T13:13:55.744Z,57.95
2022-10-26T13:16:24.505Z,58.29
2022-10-26T13:18:51.612Z,58.28
2022-10-26T13:21:20.812Z,59.24
2022-10-26T13:24:01.737Z,59.50
2022-10-26T13:26:30.315Z,59.94
2022-10-26T13:29:00.187Z,60.71
2022-10-26T13:31:31.389Z,60.31
2022-10-26T13:34:04.276Z,60.91
2022-10-26T13:36:37.330Z,61.00
2022-10-26T13:39:10.606Z,61.22
2022-10-26T13:41:39.721Z,61.39
2022-10-26T13:44:17.436Z,61.14
2022-10-26T13:46:46.709Z,61.51
2022-10-26T13:49:19.248Z,61.72
2022-10-26T13:51:49.413Z,61.73
2022-10-26T13:54:35.165Z,62.05
2022-10-26T13:57:07.874Z,62.04
2022-10-26T13:59:38.989Z,61.62
2022-10-26T14:02:25.948Z,62.19
2022-10-26T14:04:59.091Z,62.49
2022-10-26T14:07:34.686Z,62.76
2022-10-26T14:10:01.934Z,62.64
2022-10-26T14:12:29.329Z,62.68
2022-10-26T14:15:03.389Z,62.89
2022-10-26T14:17:30.607Z,63.05
2022-10-26T14:19:57.793Z,63.04
2022-10-26T14:22:30.110Z,63.06
2022-10-26T14:24:58.908Z,62.97
2022-10-26T14:27:39.598Z,62.91
2022-10-26T14:30:30.601Z,62.91
2022-10-26T14:32:58.440Z,62.76
2022-10-26T14:35:32.907Z,62.78
2022-10-26T14:38:06.513Z,62.58
2022-10-26T14:40:36.770Z,62.57
2022-10-26T14:43:05.558Z,62.36
2022-10-26T14:45:53.070Z,62.66
2022-10-26T14:48:23.092Z,62.43
2022-10-26T14:51:11.214Z,62.39
2022-10-26T14:53:40.229Z,62.98
2022-10-26T14:56:35.211Z,62.45
2022-10-26T14:59:21.019Z,62.56
2022-10-26T15:01:52.229Z,62.18
2022-10-26T15:04:40.756Z,62.50
2022-10-26T15:07:14.205Z,62.44
2022-10-26T15:09:46.540Z,62.43
2022-10-26T15:12:30.317Z,62.79
2022-10-26T15:15:06.302Z,63.17
2022-10-26T15:17:37.575Z,62.76
2022-10-26T15:20:07.433Z,62.95
2022-10-26T15:22:34.670Z,63.30
2022-10-26T15:25:04.565Z,63.35
2022-10-26T15:27:31.660Z,63.63
2022-10-26T15:30:14.097Z,63.56
2022-10-26T15:32:41.251Z,63.69
2022-10-26T15:35:10.998Z,64.12
2022-10-26T15:37:38.764Z,64.56
2022-10-26T15:40:06.482Z,64.40
2022-10-26T15:42:38.095Z,64.88
2022-10-26T15:45:15.719Z,64.85
2022-10-26T15:47:43.278Z,65.11
2022-10-26T15:50:21.798Z,65.18
2022-10-26T15:52:49.647Z,65.30
2022-10-26T15:55:17.583Z,65.56
2022-10-26T15:57:44.709Z,65.69
2022-10-26T16:00:17.188Z,65.77
2022-10-26T16:02:45.241Z,65.78
2022-10-26T16:05:13.908Z,65.96
2022-10-26T16:07:43.193Z,66.25
2022-10-26T16:10:24.763Z,65.94
2022-10-26T16:12:52.471Z,66.12
2022-10-26T16:15:25.777Z,66.68
2022-10-26T16:17:53.167Z,66.57
2022-10-26T16:20:27.397Z,66.84
2022-10-26T16:22:55.059Z,66.96
2022-10-26T16:25:24.839Z,67.17
2022-10-26T16:27:54.675Z,67.35
2022-10-26T16:30:25.801Z,67.37
2022-10-26T16:32:55.301Z,67.57
2022-10-26T16:35:22.445Z,67.73
2022-10-26T16:37:49.725Z,68.07
2022-10-26T16:40:16.859Z,68.05
2022-10-26T16:42:44.701Z,68.38
2022-10-26T16:45:12.742Z,68.55
2022-10-26T16:47:40.147Z,68.80
2022-10-26T16:50:08.861Z,68.49
2022-10-26T16:52:36.998Z,68.84
2022-10-26T16:55:05.084Z,69.14
2022-10-26T16:57:32.297Z,69.28
2022-10-26T16:59:59.559Z,69.44
2022-10-26T17:02:26.743Z,69.87
2022-10-26T17:04:54.116Z,70.21
2022-10-26T17:07:21.163Z,70.88
2022-10-26T17:09:48.269Z,70.46
2022-10-26T17:12:15.466Z,70.55
2022-10-26T17:14:42.697Z,70.69
2022-10-26T17:17:09.807Z,70.91
2022-10-26T17:19:37.721Z,71.48
2022-10-26T17:22:07.858Z,71.42
2022-10-26T17:24:36.332Z,71.86
2022-10-26T17:27:03.497Z,71.62
2022-10-26T17:29:49.092Z,71.49
2022-10-26T17:32:19.100Z,71.78
2022-10-26T17:34:46.176Z,71.98
2022-10-26T17:37:13.222Z,71.62
2022-10-26T17:39:40.619Z,71.50
2022-10-26T17:42:07.690Z,72.10
2022-10-26T17:44:39.046Z,72.19
2022-10-26T17:47:06.160Z,72.40
2022-10-26T17:49:36.009Z,72.27
2022-10-26T17:52:04.676Z,72.01
2022-10-26T17:54:31.735Z,72.15
2022-10-26T17:56:58.928Z,72.01
2022-10-26T17:59:26.056Z,72.03
2022-10-26T18:01:54.164Z,72.43
2022-10-26T18:04:23.283Z,72.04
2022-10-26T18:06:50.704Z,72.15
2022-10-26T18:09:17.818Z,72.34
2022-10-26T18:11:45.235Z,72.30
2022-10-26T18:14:13.804Z,72.68
2022-10-26T18:16:40.887Z,73.36
2022-10-26T18:19:07.994Z,73.12
2022-10-26T18:21:39.104Z,73.19
2022-10-26T18:24:07.432Z,73.08
2022-10-26T18:26:34.797Z,72.98
2022-10-26T18:29:03.570Z,73.26
2022-10-26T18:31:31.874Z,73.59
2022-10-26T18:34:03.877Z,73.80
2022-10-26T18:36:31.454Z,74.04
2022-10-26T18:38:58.781Z,74.36
2022-10-26T18:41:26.202Z,74.23
2022-10-26T18:43:55.368Z,73.85
2022-10-26T18:46:25.233Z,74.03
2022-10-26T18:48:52.891Z,73.99
2022-10-26T18:51:22.057Z,73.78
2022-10-26T18:53:49.506Z,74.52
2022-10-26T18:56:19.187Z,74.76
2022-10-26T18:58:48.640Z,74.64
2022-10-26T19:01:20.018Z,74.92
2022-10-26T19:03:47.599Z,74.79
2022-10-26T19:06:19.814Z,74.87
2022-10-26T19:08:47.380Z,74.78
2022-10-26T19:11:16.449Z,75.15
2022-10-26T19:13:44.156Z,74.71
2022-10-26T19:16:40.264Z,75.42
2022-10-26T19:19:05.758Z,74.92
2022-10-26T19:21:33.201Z,75.11
2022-10-26T19:24:01.292Z,75.35
2022-10-26T19:26:33.444Z,75.40
2022-10-26T19:29:04.827Z,76.06
2022-10-26T19:31:35.734Z,76.25
2022-10-26T19:34:03.855Z,76.19
2022-10-26T19:36:31.251Z,75.80
2022-10-26T19:38:58.393Z,75.71
2022-10-26T19:41:26.879Z,75.91
2022-10-26T19:43:55.072Z,76.29
2022-10-26T19:46:27.281Z,75.85
2022-10-26T19:48:56.838Z,76.05
2022-10-26T19:51:25.166Z,75.87
2022-10-26T19:53:52.579Z,76.07
2022-10-26T19:56:20.637Z,76.41
2022-10-26T19:58:48.179Z,76.82
2022-10-26T20:01:15.693Z,76.42
2022-10-26T20:03:43.218Z,76.64
2022-10-26T20:06:13.009Z,75.98
2022-10-26T20:08:42.998Z,76.47
2022-10-26T20:11:14.626Z,76.98
2022-10-26T20:13:44.235Z,77.03
2022-10-26T20:16:12.097Z,76.66
2022-10-26T20:18:44.009Z,76.68
2022-10-26T20:21:15.051Z,76.79
2022-10-26T20:23:42.707Z,77.00
2022-10-26T20:26:18.329Z,76.93
2022-10-26T20:28:49.024Z,77.21
2022-10-26T20:31:16.182Z,77.23
2022-10-26T20:33:43.387Z,77.10
2022-10-26T20:36:10.546Z,77.26
2022-10-26T20:38:39.342Z,77.49
2022-10-26T20:41:10.404Z,77.41
2022-10-26T20:43:39.351Z,77.79
2022-10-26T20:46:30.871Z,77.38
2022-10-26T20:48:58.162Z,77.94
2022-10-26T20:51:47.619Z,78.20
2022-10-26T20:54:33.480Z,77.69
2022-10-26T20:57:02.386Z,78.23
2022-10-26T21:02:04.642Z,77.87
2022-10-26T21:04:31.809Z,77.98
2022-10-26T21:06:59.054Z,77.90
2022-10-26T21:09:27.610Z,78.18
2022-10-26T21:11:57.756Z,78.34
2022-10-26T21:14:24.938Z,78.06
2022-10-26T21:16:51.987Z,78.78
2022-10-26T21:19:19.582Z,78.62
2022-10-26T21:21:46.800Z,78.50
2022-10-26T21:24:13.947Z,78.38
2022-10-26T21:26:41.018Z,78.60
2022-10-26T21:29:08.058Z,78.65
2022-10-26T21:31:35.251Z,78.41
2022-10-26T21:34:02.773Z,77.96
2022-10-26T21:36:29.885Z,77.86
2022-10-26T21:38:57.013Z,78.13
2022-10-26T21:44:03.187Z,78.57
2022-10-26T21:46:38.314Z,78.78
2022-10-26T21:49:05.701Z,79.06
2022-10-26T21:51:33.165Z,79.76
2022-10-26T21:54:00.355Z,79.63
2022-10-26T21:56:27.497Z,79.73
2022-10-26T21:58:54.771Z,79.86
2022-10-26T22:01:22.934Z,79.69
2022-10-26T22:03:50.224Z,81.19
2022-10-26T22:08:47.368Z,80.83
2022-10-26T22:11:18.763Z,81.08
2022-10-26T22:13:46.667Z,81.22
2022-10-26T22:16:16.538Z,81.01
2022-10-26T22:18:45.453Z,81.30
2022-10-26T22:21:13.720Z,81.08
2022-10-26T22:23:42.078Z,80.96
2022-10-26T22:26:12.668Z,80.84
2022-10-26T22:28:42.726Z,81.33
2022-10-26T22:31:13.353Z,81.27
2022-10-26T22:33:41.192Z,81.31
2022-10-26T22:36:13.264Z,81.51
2022-10-26T22:38:41.020Z,80.96
2022-10-26T22:41:08.805Z,81.02
2022-10-26T22:43:35.923Z,81.26
2022-10-26T22:46:05.703Z,80.99
2022-10-26T22:48:33.577Z,81.44
2022-10-26T22:51:12.482Z,81.24
2022-10-26T22:53:39.578Z,81.10
2022-10-26T22:56:08.229Z,80.98
2022-10-26T22:58:35.943Z,81.65
2022-10-26T23:01:11.699Z,81.46
2022-10-26T23:03:39.722Z,81.67
2022-10-26T23:06:08.532Z,81.43
2022-10-26T23:08:35.661Z,81.79
2022-10-26T23:11:05.545Z,81.63
2022-10-26T23:13:32.999Z,81.71
2022-10-26T23:16:07.295Z,81.83
2022-10-26T23:18:35.197Z,81.86
2022-10-26T23:21:02.386Z,81.65
2022-10-26T23:23:29.903Z,81.24
2022-10-26T23:26:01.566Z,81.72
2022-10-26T23:28:28.670Z,82.16
2022-10-26T23:30:55.772Z,81.88
2022-10-26T23:33:22.886Z,82.24
2022-10-26T23:35:53.664Z,82.26
2022-10-26T23:38:20.751Z,82.82
2022-10-26T23:40:51.015Z,82.10
2022-10-26T23:43:18.290Z,82.44
2022-10-26T23:45:46.056Z,82.12
2022-10-26T23:48:13.884Z,81.80
2022-10-26T23:50:45.346Z,81.49
2022-10-26T23:53:13.845Z,82.24
2022-10-26T23:55:43.284Z,81.66
2022-10-26T23:58:11.227Z,82.01
